KPTN/PTN METAR and TAF weather

Enter ICAO airport designator
Station Type Date Time Source
KPTN METAR 2019/08/18 19:56 UTC NOAA

KPTN 181956Z AUTO 08006KT 10SM -TSRA FEW026 BKN055 OVC095 25/24 A3001 RMK AO2 WSHFT 1903 LTG DSNT N-SE TSB1857E14B20 SLP161 T02500244 PNO $


Station Type Date Time Source
KPTN Decoded METAR 2019/08/18 19:56 UTC NOAA

Station name not available
Aug 18, 2019 - 03:56 PM EDT / 2019.08.18 1956 UTC
Wind: from the E (080 degrees) at 7 MPH (6 KT):0
Visibility: 10 mile(s):0
Sky conditions: overcast
Weather: light rain with thunder; Lightning observed
Temperature: 77.0 F (25.0 C)
Dew Point: 75.9 F (24.4 C)
Relative Humidity: 96%
Pressure (altimeter): 30.01 in. Hg (1016 hPa)
ob: KPTN 181956Z AUTO 08006KT 10SM -TSRA FEW026 BKN055 OVC095 25/24 A3001 RMK AO2 WSHFT 1903 LTG DSNT N-SE TSB1857E14B20 SLP161 T02500244 PNO
cycle: 20

Station Type Date Time Source
KPTN TAF UTC NOAA

Error!

Example: see airport list